createdAt,value
2018-10-03T00:01:38.479Z,7.40
2018-10-03T00:04:07.147Z,7.35
2018-10-03T00:06:36.533Z,8.60
2018-10-03T00:09:06.994Z,7.15
2018-10-03T00:11:35.548Z,8.08
2018-10-03T00:14:04.354Z,7.12
2018-10-03T00:16:32.922Z,7.95
2018-10-03T00:19:01.459Z,8.30
2018-10-03T00:21:30.340Z,7.83
2018-10-03T00:23:58.876Z,7.92
2018-10-03T00:26:27.428Z,8.60
2018-10-03T00:28:55.991Z,7.78
2018-10-03T00:31:24.531Z,6.95
2018-10-03T00:33:53.130Z,6.30
2018-10-03T00:36:21.720Z,6.97
2018-10-03T00:38:50.255Z,7.80
2018-10-03T00:41:18.788Z,7.40
2018-10-03T00:43:47.310Z,6.70
2018-10-03T00:46:15.877Z,6.90
2018-10-03T00:48:44.422Z,6.65
2018-10-03T00:51:13.003Z,7.03
2018-10-03T00:53:41.543Z,7.45
2018-10-03T00:56:10.117Z,6.78
2018-10-03T00:58:38.722Z,7.95
2018-10-03T01:01:07.448Z,7.42
2018-10-03T01:03:35.999Z,7.05
2018-10-03T01:06:04.606Z,6.80
2018-10-03T01:08:33.182Z,6.80
2018-10-03T01:11:01.866Z,7.37
2018-10-03T01:13:30.442Z,7.87
2018-10-03T01:15:59.021Z,7.20
2018-10-03T01:18:27.583Z,6.67
2018-10-03T01:20:56.125Z,6.87
2018-10-03T01:23:24.638Z,6.75
2018-10-03T01:25:53.190Z,7.28
2018-10-03T01:28:21.752Z,7.10
2018-10-03T01:30:50.344Z,6.67
2018-10-03T01:33:18.867Z,7.03
2018-10-03T01:35:47.415Z,6.83
2018-10-03T01:38:15.993Z,7.37
2018-10-03T01:40:44.602Z,7.42
2018-10-03T01:43:13.195Z,7.40
2018-10-03T01:45:41.742Z,7.58
2018-10-03T01:48:10.262Z,7.60
2018-10-03T01:50:38.805Z,6.90
2018-10-03T01:53:07.368Z,7.62
2018-10-03T01:55:35.925Z,7.12
2018-10-03T01:58:04.457Z,7.17
2018-10-03T02:00:33.003Z,7.30
2018-10-03T02:03:01.557Z,7.30
2018-10-03T02:05:30.110Z,8.15
2018-10-03T02:07:58.679Z,7.00
2018-10-03T02:10:27.217Z,8.35
2018-10-03T02:12:55.762Z,6.83
2018-10-03T02:15:24.285Z,7.62
2018-10-03T02:17:52.842Z,7.00
2018-10-03T02:20:21.403Z,8.53
2018-10-03T02:22:49.960Z,6.92
2018-10-03T02:25:18.502Z,7.20
2018-10-03T02:27:47.041Z,6.85
2018-10-03T02:30:15.591Z,6.25
2018-10-03T02:32:44.193Z,6.15
2018-10-03T02:35:12.742Z,6.50
2018-10-03T02:37:41.314Z,6.37
2018-10-03T02:40:09.888Z,6.47
2018-10-03T02:42:38.525Z,6.03
2018-10-03T02:45:07.477Z,5.85
2018-10-03T02:47:36.219Z,4.95
2018-10-03T02:50:04.846Z,4.90
2018-10-03T02:52:33.396Z,5.28
2018-10-03T02:55:01.943Z,5.22
2018-10-03T02:57:30.489Z,5.00
2018-10-03T02:59:59.015Z,3.87
2018-10-03T03:02:27.558Z,4.25
2018-10-03T03:04:56.139Z,4.10
2018-10-03T03:07:24.696Z,4.92
2018-10-03T03:09:53.237Z,3.87
2018-10-03T03:12:21.787Z,3.45
2018-10-03T03:14:51.098Z,3.65
2018-10-03T03:17:19.675Z,3.70
2018-10-03T03:19:48.222Z,3.55
2018-10-03T03:22:16.759Z,3.10
2018-10-03T03:24:45.316Z,3.15
2018-10-03T03:27:13.912Z,3.12
2018-10-03T03:29:42.466Z,3.17
2018-10-03T03:32:11.049Z,3.30
2018-10-03T03:34:39.621Z,3.20
2018-10-03T03:37:08.208Z,3.42
2018-10-03T03:39:36.775Z,2.75
2018-10-03T03:42:05.317Z,2.80
2018-10-03T03:44:33.869Z,3.08
2018-10-03T03:47:02.451Z,2.55
2018-10-03T03:49:31.002Z,2.47
2018-10-03T03:51:59.582Z,2.27
2018-10-03T03:54:28.193Z,2.08
2018-10-03T03:56:56.720Z,2.37
2018-10-03T03:59:25.290Z,2.47
2018-10-03T04:01:53.855Z,2.75
2018-10-03T04:04:22.468Z,2.83
2018-10-03T04:06:51.009Z,2.45
2018-10-03T04:09:19.572Z,2.30
2018-10-03T04:11:48.141Z,2.50
2018-10-03T04:14:16.767Z,2.95
2018-10-03T04:16:45.657Z,2.95
2018-10-03T04:19:14.200Z,2.12
2018-10-03T04:21:42.805Z,2.30
2018-10-03T04:24:12.102Z,2.62
2018-10-03T04:26:41.012Z,2.50
2018-10-03T04:29:09.553Z,2.10
2018-10-03T04:31:38.158Z,2.42
2018-10-03T04:34:06.916Z,2.58
2018-10-03T04:36:35.875Z,2.52
2018-10-03T04:39:06.013Z,2.52
2018-10-03T04:41:34.956Z,2.22
2018-10-03T04:44:03.538Z,2.95
2018-10-03T04:46:32.300Z,2.60
2018-10-03T04:49:00.875Z,3.35
2018-10-03T04:51:29.448Z,2.35
2018-10-03T04:53:57.995Z,2.60
2018-10-03T04:56:26.547Z,2.77
2018-10-03T04:58:55.082Z,2.02
2018-10-03T05:01:23.616Z,2.30
2018-10-03T05:03:52.165Z,2.52
2018-10-03T05:06:20.756Z,2.70
2018-10-03T05:08:49.341Z,2.22
2018-10-03T05:11:17.955Z,3.67
2018-10-03T05:13:46.473Z,2.22
2018-10-03T05:16:15.018Z,2.47
2018-10-03T05:18:43.565Z,2.33
2018-10-03T05:21:12.089Z,2.55
2018-10-03T05:23:40.617Z,2.60
2018-10-03T05:26:09.183Z,2.92
2018-10-03T05:28:37.747Z,2.87
2018-10-03T05:31:06.586Z,2.80
2018-10-03T05:33:35.938Z,2.47
2018-10-03T05:36:04.507Z,2.35
2018-10-03T05:38:33.070Z,2.42
2018-10-03T05:41:01.629Z,2.45
2018-10-03T05:43:30.223Z,2.22
2018-10-03T05:45:58.765Z,2.02
2018-10-03T05:48:27.445Z,2.08
2018-10-03T05:50:55.985Z,2.95
2018-10-03T05:53:24.576Z,2.47
2018-10-03T05:55:53.140Z,2.90
2018-10-03T05:58:21.691Z,2.92
2018-10-03T06:00:50.247Z,2.75
2018-10-03T06:03:18.916Z,2.95
2018-10-03T06:05:47.497Z,2.22
2018-10-03T06:08:16.066Z,2.33
2018-10-03T06:10:44.631Z,3.83
2018-10-03T06:13:13.244Z,2.47
2018-10-03T06:15:41.852Z,2.35
2018-10-03T06:18:10.412Z,2.87
2018-10-03T06:20:39.011Z,2.80
2018-10-03T06:23:07.571Z,2.62
2018-10-03T06:25:36.171Z,2.05
2018-10-03T06:28:04.772Z,2.20
2018-10-03T06:30:33.339Z,2.80
2018-10-03T06:33:01.934Z,2.37
2018-10-03T06:35:30.500Z,2.10
2018-10-03T06:37:59.027Z,1.90
2018-10-03T06:40:27.606Z,2.15
2018-10-03T06:42:56.157Z,2.40
2018-10-03T06:45:24.725Z,2.20
2018-10-03T06:47:53.259Z,2.95
2018-10-03T06:50:21.810Z,2.65
2018-10-03T06:52:50.392Z,2.35
2018-10-03T06:55:18.939Z,3.17
2018-10-03T06:57:47.483Z,3.52
2018-10-03T07:00:16.072Z,2.58
2018-10-03T07:02:44.631Z,2.62
2018-10-03T07:05:13.227Z,2.12
2018-10-03T07:07:41.792Z,2.37
2018-10-03T07:10:10.455Z,2.80
2018-10-03T07:12:39.006Z,2.80
2018-10-03T07:15:07.593Z,2.65
2018-10-03T07:17:36.144Z,2.40
2018-10-03T07:20:04.774Z,2.70
2018-10-03T07:22:33.383Z,2.50
2018-10-03T07:25:01.965Z,2.98
2018-10-03T07:27:31.857Z,2.95
2018-10-03T07:30:00.418Z,2.58
2018-10-03T07:32:29.035Z,2.75
2018-10-03T07:34:57.586Z,3.12
2018-10-03T07:37:26.128Z,2.65
2018-10-03T07:39:54.681Z,2.47
2018-10-03T07:42:23.239Z,2.08
2018-10-03T07:44:51.822Z,2.50
2018-10-03T07:47:21.414Z,3.08
2018-10-03T07:49:50.010Z,3.33
2018-10-03T07:52:18.521Z,3.27
2018-10-03T07:54:47.244Z,3.00
2018-10-03T07:57:15.826Z,3.02
2018-10-03T07:59:44.386Z,2.05
2018-10-03T08:02:12.929Z,2.20
2018-10-03T08:04:41.491Z,2.10
2018-10-03T08:07:10.156Z,2.40
2018-10-03T08:09:38.714Z,2.50
2018-10-03T08:12:07.335Z,2.30
2018-10-03T08:14:35.896Z,2.98
2018-10-03T08:17:04.503Z,2.05
2018-10-03T08:19:33.036Z,2.67
2018-10-03T08:22:01.597Z,2.30
2018-10-03T08:24:30.156Z,3.05
2018-10-03T08:26:58.731Z,9.03
2018-10-03T08:29:27.332Z,2.42
2018-10-03T08:31:55.935Z,2.35
2018-10-03T08:34:24.577Z,2.60
2018-10-03T08:36:53.152Z,2.10
2018-10-03T08:39:21.689Z,2.40
2018-10-03T08:41:50.260Z,1.98
2018-10-03T08:44:18.828Z,2.80
2018-10-03T08:46:47.416Z,2.60
2018-10-03T08:49:15.986Z,2.60
2018-10-03T08:51:44.590Z,3.20
2018-10-03T08:54:13.152Z,2.27
2018-10-03T08:56:41.708Z,2.83
2018-10-03T08:59:10.303Z,2.30
2018-10-03T09:01:38.875Z,2.25
2018-10-03T09:04:07.527Z,2.60
2018-10-03T09:06:36.122Z,1.82
2018-10-03T09:09:06.602Z,2.95
2018-10-03T09:11:35.282Z,3.12
2018-10-03T09:14:03.745Z,2.00
2018-10-03T09:16:32.333Z,3.37
2018-10-03T09:19:00.904Z,2.45
2018-10-03T09:21:29.556Z,2.67
2018-10-03T09:23:58.044Z,2.55
2018-10-03T09:26:26.596Z,2.10
2018-10-03T09:28:55.150Z,2.55
2018-10-03T09:31:23.797Z,3.58
2018-10-03T09:33:52.396Z,2.90
2018-10-03T09:36:20.992Z,2.37
2018-10-03T09:38:49.620Z,2.90
2018-10-03T09:41:18.222Z,2.25
2018-10-03T09:43:47.660Z,2.75
2018-10-03T09:46:16.264Z,3.10
2018-10-03T09:48:44.851Z,2.37
2018-10-03T09:51:13.458Z,2.35
2018-10-03T09:53:43.161Z,2.95
2018-10-03T09:56:11.724Z,3.00
2018-10-03T09:58:40.274Z,2.15
2018-10-03T10:01:14.199Z,2.33
2018-10-03T10:03:42.786Z,2.35
2018-10-03T10:06:11.383Z,2.05
2018-10-03T10:08:39.965Z,2.62
2018-10-03T10:11:08.590Z,2.15
2018-10-03T10:13:37.856Z,2.70
2018-10-03T10:16:06.548Z,3.42
2018-10-03T10:18:35.082Z,2.70
2018-10-03T10:21:03.871Z,6.45
2018-10-03T10:23:32.572Z,7.17
2018-10-03T10:26:01.225Z,6.35
2018-10-03T10:28:29.759Z,2.67
2018-10-03T10:30:58.314Z,2.85
2018-10-03T10:33:26.861Z,3.12
2018-10-03T10:35:55.422Z,2.47
2018-10-03T10:38:23.980Z,2.52
2018-10-03T10:40:52.580Z,3.35
2018-10-03T10:43:21.121Z,2.58
2018-10-03T10:45:49.701Z,2.70
2018-10-03T10:48:18.253Z,7.08
2018-10-03T10:50:46.823Z,7.65
2018-10-03T10:53:15.386Z,5.70
2018-10-03T10:55:43.965Z,4.58
2018-10-03T10:58:12.580Z,4.75
2018-10-03T11:00:41.131Z,3.05
2018-10-03T11:03:09.680Z,3.02
2018-10-03T11:05:38.299Z,2.10
2018-10-03T11:08:06.885Z,2.10
2018-10-03T11:10:35.455Z,2.42
2018-10-03T11:13:04.011Z,2.40
2018-10-03T11:15:32.641Z,1.60
2018-10-03T11:18:01.174Z,2.02
2018-10-03T11:20:29.717Z,2.17
2018-10-03T11:22:58.274Z,2.40
2018-10-03T11:25:26.821Z,2.30
2018-10-03T11:27:55.433Z,2.22
2018-10-03T11:30:24.025Z,2.33
2018-10-03T11:32:52.631Z,2.52
2018-10-03T11:35:21.200Z,2.08
2018-10-03T11:37:49.802Z,1.72
2018-10-03T11:40:18.399Z,2.10
2018-10-03T11:42:46.973Z,2.25
2018-10-03T11:45:15.576Z,3.10
2018-10-03T11:47:44.198Z,1.67
2018-10-03T11:50:12.887Z,2.50
2018-10-03T11:52:41.447Z,2.70
2018-10-03T11:55:10.053Z,3.37
2018-10-03T11:57:38.658Z,1.75
2018-10-03T12:00:07.219Z,2.12
2018-10-03T12:02:35.822Z,2.05
2018-10-03T12:05:04.444Z,2.65
2018-10-03T12:07:33.052Z,1.82
2018-10-03T12:10:01.692Z,2.37
2018-10-03T12:12:30.258Z,1.90
2018-10-03T12:14:58.831Z,1.70
2018-10-03T12:17:27.597Z,2.15
2018-10-03T12:19:56.141Z,1.75
2018-10-03T12:22:24.722Z,2.50
2018-10-03T12:24:53.287Z,2.37
2018-10-03T12:27:21.859Z,2.55
2018-10-03T12:29:50.430Z,1.90
2018-10-03T12:32:19.011Z,2.00
2018-10-03T12:34:47.620Z,2.35
2018-10-03T12:37:16.191Z,2.10
2018-10-03T12:39:44.754Z,2.50
2018-10-03T12:42:13.349Z,2.50
2018-10-03T12:44:41.929Z,1.85
2018-10-03T12:47:10.470Z,2.17
2018-10-03T12:49:39.036Z,1.70
2018-10-03T12:52:08.050Z,2.15
2018-10-03T12:54:36.736Z,1.40
2018-10-03T12:57:05.289Z,1.67
2018-10-03T12:59:33.836Z,2.05
2018-10-03T13:02:02.464Z,1.75
2018-10-03T13:04:31.011Z,2.00
2018-10-03T13:06:59.589Z,2.00
2018-10-03T13:09:28.156Z,1.75
2018-10-03T13:11:56.687Z,1.90
2018-10-03T13:14:25.245Z,1.90
2018-10-03T13:16:53.778Z,2.45
2018-10-03T13:19:22.338Z,2.15
2018-10-03T13:21:51.141Z,1.90
2018-10-03T13:24:19.740Z,3.67
2018-10-03T13:26:48.307Z,2.50
2018-10-03T13:29:16.855Z,4.08
2018-10-03T13:31:45.467Z,3.98
2018-10-03T13:34:14.061Z,3.83
2018-10-03T13:36:42.723Z,2.72
2018-10-03T13:39:11.420Z,2.20
2018-10-03T13:41:40.141Z,2.58
2018-10-03T13:44:09.652Z,2.27
2018-10-03T13:46:38.210Z,2.22
2018-10-03T13:49:06.869Z,3.67
2018-10-03T13:51:35.441Z,2.60
2018-10-03T13:54:04.033Z,3.85
2018-10-03T13:56:32.577Z,2.40
2018-10-03T13:59:01.143Z,1.80
2018-10-03T14:01:29.730Z,1.75
2018-10-03T14:03:58.303Z,1.70
2018-10-03T14:06:26.891Z,1.75
2018-10-03T14:08:55.468Z,2.10
2018-10-03T14:11:24.213Z,2.20
2018-10-03T14:13:52.761Z,2.45
2018-10-03T14:16:21.882Z,2.77
2018-10-03T14:18:50.436Z,1.98
2018-10-03T14:21:19.015Z,2.45
2018-10-03T14:23:47.566Z,2.35
2018-10-03T14:26:16.154Z,2.55
2018-10-03T14:28:44.680Z,2.45
2018-10-03T14:31:13.277Z,3.02
2018-10-03T14:33:41.935Z,3.10
2018-10-03T14:36:10.493Z,1.77
2018-10-03T14:38:39.050Z,2.60
2018-10-03T14:41:07.682Z,2.10
2018-10-03T14:43:36.242Z,2.62
2018-10-03T14:46:04.817Z,2.47
2018-10-03T14:48:33.442Z,2.55
2018-10-03T14:51:02.010Z,2.40
2018-10-03T14:53:30.599Z,3.55
2018-10-03T14:55:59.191Z,2.10
2018-10-03T14:58:27.886Z,3.58
2018-10-03T15:00:56.442Z,2.55
2018-10-03T15:03:25.109Z,1.60
2018-10-03T15:05:53.941Z,2.50
2018-10-03T15:08:22.526Z,2.35
2018-10-03T15:10:51.095Z,2.25
2018-10-03T15:13:19.727Z,2.05
2018-10-03T15:15:48.283Z,1.87
2018-10-03T15:18:16.885Z,1.60
2018-10-03T15:20:45.504Z,1.85
2018-10-03T15:23:14.105Z,1.82
2018-10-03T15:25:42.685Z,1.90
2018-10-03T15:28:11.201Z,2.17
2018-10-03T15:30:39.788Z,2.10
2018-10-03T15:33:08.360Z,2.00
2018-10-03T15:35:36.928Z,1.60
2018-10-03T15:38:05.504Z,1.60
2018-10-03T15:40:34.107Z,1.77
2018-10-03T15:43:02.646Z,2.55
2018-10-03T15:45:31.182Z,2.92
2018-10-03T15:47:59.706Z,3.05
2018-10-03T15:50:28.276Z,2.45
2018-10-03T15:52:56.823Z,2.80
2018-10-03T15:55:25.372Z,3.22
2018-10-03T15:57:53.994Z,2.25
2018-10-03T16:00:22.566Z,2.08
2018-10-03T16:02:51.114Z,2.00
2018-10-03T16:05:19.671Z,2.70
2018-10-03T16:07:48.217Z,1.92
2018-10-03T16:10:16.896Z,3.35
2018-10-03T16:12:50.023Z,1.80
2018-10-03T16:15:18.582Z,1.90
2018-10-03T16:17:47.151Z,1.57
2018-10-03T16:20:15.718Z,1.45
2018-10-03T16:22:44.278Z,1.32
2018-10-03T16:25:13.319Z,1.30
2018-10-03T16:27:41.866Z,1.90
2018-10-03T16:30:10.422Z,1.32
2018-10-03T16:32:38.962Z,2.00
2018-10-03T16:35:07.530Z,1.65
2018-10-03T16:37:36.084Z,1.65
2018-10-03T16:40:04.844Z,1.45
2018-10-03T16:42:33.401Z,1.40
2018-10-03T16:45:01.963Z,1.45
2018-10-03T16:47:30.492Z,1.72
2018-10-03T16:49:59.058Z,1.52
2018-10-03T16:52:27.631Z,1.30
2018-10-03T16:54:56.191Z,1.15
2018-10-03T16:57:24.775Z,1.90
2018-10-03T16:59:53.326Z,1.35
2018-10-03T17:02:21.884Z,1.30
2018-10-03T17:04:50.463Z,1.50
2018-10-03T17:07:19.031Z,1.20
2018-10-03T17:09:47.583Z,1.62
2018-10-03T17:12:16.111Z,1.70
2018-10-03T17:14:44.663Z,1.32
2018-10-03T17:17:13.215Z,1.10
2018-10-03T17:19:41.778Z,1.20
2018-10-03T17:22:10.341Z,1.70
2018-10-03T17:24:39.332Z,1.40
2018-10-03T17:27:07.921Z,1.50
2018-10-03T17:29:36.474Z,1.30
2018-10-03T17:32:05.106Z,1.30
2018-10-03T17:34:33.684Z,1.50
2018-10-03T17:37:02.316Z,1.40
2018-10-03T17:39:30.891Z,1.40
2018-10-03T17:41:59.441Z,1.55
2018-10-03T17:44:28.015Z,2.10
2018-10-03T17:46:57.611Z,1.70
2018-10-03T17:49:26.183Z,1.52
2018-10-03T17:51:54.744Z,1.80
2018-10-03T17:54:23.298Z,2.17
2018-10-03T17:56:51.854Z,1.70
2018-10-03T17:59:20.429Z,2.00
2018-10-03T18:01:53.914Z,1.55
2018-10-03T18:04:22.489Z,1.95
2018-10-03T18:06:51.155Z,1.77
2018-10-03T18:09:19.756Z,1.50
2018-10-03T18:11:48.289Z,1.40
2018-10-03T18:14:16.829Z,1.72
2018-10-03T18:16:45.389Z,1.70
2018-10-03T18:19:13.953Z,1.75
2018-10-03T18:21:42.591Z,1.47
2018-10-03T18:24:11.144Z,1.47
2018-10-03T18:26:39.708Z,1.30
2018-10-03T18:29:08.260Z,2.02
2018-10-03T18:31:36.823Z,1.35
2018-10-03T18:34:05.427Z,1.70
2018-10-03T18:36:33.979Z,1.50
2018-10-03T18:39:02.593Z,1.20
2018-10-03T18:41:31.149Z,1.62
2018-10-03T18:43:59.700Z,1.75
2018-10-03T18:46:28.236Z,2.20
2018-10-03T18:48:56.773Z,1.67
2018-10-03T18:51:25.343Z,1.60
2018-10-03T18:53:53.907Z,2.10
2018-10-03T18:56:22.459Z,1.45
2018-10-03T18:58:51.063Z,1.62
2018-10-03T19:01:19.598Z,1.50
2018-10-03T19:03:48.144Z,1.60
2018-10-03T19:06:16.805Z,1.17
2018-10-03T19:08:45.413Z,1.20
2018-10-03T19:11:13.983Z,1.55
2018-10-03T19:13:42.531Z,1.35
2018-10-03T19:16:11.081Z,1.40
2018-10-03T19:18:39.656Z,1.12
2018-10-03T19:21:08.212Z,1.12
2018-10-03T19:23:36.787Z,1.52
2018-10-03T19:26:05.385Z,1.35
2018-10-03T19:28:33.938Z,0.90
2018-10-03T19:31:02.509Z,1.17
2018-10-03T19:33:31.174Z,1.02
2018-10-03T19:35:59.727Z,1.10
2018-10-03T19:38:28.283Z,1.00
2018-10-03T19:40:56.835Z,1.15
2018-10-03T19:43:25.385Z,2.77
2018-10-03T19:45:54.033Z,2.45
2018-10-03T19:48:22.727Z,1.90
2018-10-03T19:50:51.218Z,1.85
2018-10-03T19:53:25.112Z,1.80
2018-10-03T19:55:53.667Z,1.80
2018-10-03T19:58:22.212Z,1.32
2018-10-03T20:00:50.779Z,1.50
2018-10-03T20:03:19.351Z,1.50
2018-10-03T20:05:47.923Z,1.30
2018-10-03T20:08:16.535Z,1.50
2018-10-03T20:10:45.096Z,1.42
2018-10-03T20:13:13.644Z,1.37
2018-10-03T20:15:42.199Z,1.32
2018-10-03T20:18:10.750Z,1.30
2018-10-03T20:20:39.301Z,1.37
2018-10-03T20:23:07.933Z,1.50
2018-10-03T20:25:36.476Z,1.20
2018-10-03T20:28:05.051Z,1.70
2018-10-03T20:30:33.723Z,1.40
2018-10-03T20:33:02.300Z,1.20
2018-10-03T20:35:30.845Z,1.10
2018-10-03T20:37:59.390Z,1.10
2018-10-03T20:40:27.976Z,1.20
2018-10-03T20:42:56.531Z,1.80
2018-10-03T20:45:25.092Z,1.10
2018-10-03T20:47:53.633Z,1.55
2018-10-03T20:50:22.240Z,1.35
2018-10-03T20:52:50.796Z,1.10
2018-10-03T20:55:19.363Z,1.40
2018-10-03T20:57:47.967Z,1.70
2018-10-03T21:00:16.574Z,2.02
2018-10-03T21:02:45.291Z,1.40
2018-10-03T21:05:13.821Z,1.32
2018-10-03T21:07:42.391Z,1.17
2018-10-03T21:10:10.932Z,1.00
2018-10-03T21:12:39.493Z,1.75
2018-10-03T21:15:08.377Z,1.40
2018-10-03T21:17:36.914Z,1.55
2018-10-03T21:20:05.621Z,1.10
2018-10-03T21:22:34.191Z,1.10
2018-10-03T21:25:02.888Z,1.40
2018-10-03T21:27:31.367Z,1.10
2018-10-03T21:29:59.936Z,1.20
2018-10-03T21:32:28.541Z,1.25
2018-10-03T21:34:57.174Z,1.35
2018-10-03T21:37:25.718Z,1.00
2018-10-03T21:39:54.287Z,1.50
2018-10-03T21:42:22.831Z,1.30
2018-10-03T21:44:51.366Z,1.50
2018-10-03T21:47:19.935Z,1.75
2018-10-03T21:49:48.488Z,1.95
2018-10-03T21:52:17.046Z,2.05
2018-10-03T21:54:45.581Z,1.30
2018-10-03T21:57:14.168Z,1.70
2018-10-03T21:59:42.728Z,2.22
2018-10-03T22:02:11.283Z,1.52
2018-10-03T22:04:39.841Z,1.67
2018-10-03T22:07:08.419Z,1.40
2018-10-03T22:09:36.949Z,1.62
2018-10-03T22:12:05.524Z,1.80
2018-10-03T22:14:34.089Z,1.70
2018-10-03T22:17:02.647Z,1.65
2018-10-03T22:19:31.222Z,1.52
2018-10-03T22:21:59.816Z,1.67
2018-10-03T22:24:28.344Z,2.02
2018-10-03T22:26:56.906Z,1.80
2018-10-03T22:29:25.486Z,1.50
2018-10-03T22:31:54.042Z,1.40
2018-10-03T22:34:22.577Z,1.70
2018-10-03T22:36:51.131Z,1.85
2018-10-03T22:39:19.683Z,1.50
2018-10-03T22:41:48.227Z,1.70
2018-10-03T22:44:16.799Z,2.10
2018-10-03T22:46:45.360Z,1.40
2018-10-03T22:49:13.922Z,2.40
2018-10-03T22:51:42.654Z,1.55
2018-10-03T22:54:11.212Z,1.67
2018-10-03T22:56:39.838Z,1.77
2018-10-03T22:59:08.365Z,1.95
2018-10-03T23:01:36.956Z,2.77
2018-10-03T23:04:05.511Z,1.40
2018-10-03T23:06:34.096Z,2.27
2018-10-03T23:09:02.727Z,1.30
2018-10-03T23:11:31.262Z,1.40
2018-10-03T23:13:59.801Z,1.72
2018-10-03T23:16:28.400Z,1.35
2018-10-03T23:18:56.949Z,1.50
2018-10-03T23:21:25.514Z,1.92
2018-10-03T23:23:54.065Z,1.50
2018-10-03T23:26:22.639Z,2.10
2018-10-03T23:28:51.197Z,1.40
2018-10-03T23:31:19.753Z,2.30
2018-10-03T23:33:48.313Z,1.20
2018-10-03T23:36:16.875Z,1.55
2018-10-03T23:38:45.413Z,1.40
2018-10-03T23:41:13.961Z,1.60
2018-10-03T23:43:42.497Z,1.92
2018-10-03T23:46:11.043Z,1.65
2018-10-03T23:48:39.582Z,1.50
2018-10-03T23:51:08.112Z,1.50
2018-10-03T23:53:36.837Z,1.60
2018-10-03T23:56:05.388Z,1.55
2018-10-03T23:58:33.950Z,1.92
